createdAt,value
2022-08-18T00:01:16.039Z,15.87
2022-08-18T00:03:57.360Z,16.03
2022-08-18T00:06:30.510Z,15.43
2022-08-18T00:08:59.335Z,16.37
2022-08-18T00:11:41.464Z,16.60
2022-08-18T00:14:22.660Z,17.83
2022-08-18T00:16:52.422Z,18.40
2022-08-18T00:19:20.295Z,17.97
2022-08-18T00:22:08.366Z,20.00
2022-08-18T00:24:48.639Z,19.23
2022-08-18T00:27:23.227Z,19.53
2022-08-18T00:29:52.322Z,18.63
2022-08-18T00:32:25.301Z,18.17
2022-08-18T00:34:55.500Z,19.00
2022-08-18T00:37:23.986Z,20.67
2022-08-18T00:39:52.859Z,20.07
2022-08-18T00:42:28.171Z,20.23
2022-08-18T00:45:04.362Z,21.20
2022-08-18T00:47:36.362Z,19.67
2022-08-18T00:50:14.999Z,19.00
2022-08-18T00:52:53.515Z,21.07
2022-08-18T00:55:20.935Z,20.23
2022-08-18T00:57:50.312Z,20.57
2022-08-18T01:00:17.922Z,20.47
2022-08-18T01:02:48.592Z,20.33
2022-08-18T01:05:33.964Z,19.87
2022-08-18T01:08:01.096Z,19.83
2022-08-18T01:10:28.077Z,22.00
2022-08-18T01:12:58.349Z,21.67
2022-08-18T01:15:28.106Z,19.93
2022-08-18T01:18:17.788Z,19.57
2022-08-18T01:21:13.031Z,19.47
2022-08-18T01:23:41.394Z,19.77
2022-08-18T01:26:09.408Z,19.90
2022-08-18T01:28:45.987Z,22.33
2022-08-18T01:31:30.776Z,24.03
2022-08-18T01:33:58.951Z,23.20
2022-08-18T01:36:25.872Z,25.30
2022-08-18T01:38:53.760Z,26.30
2022-08-18T01:41:30.384Z,25.77
2022-08-18T01:43:59.570Z,25.70
2022-08-18T01:46:28.400Z,25.83
2022-08-18T01:48:55.789Z,27.40
2022-08-18T01:51:39.966Z,25.50
2022-08-18T01:54:11.649Z,25.70
2022-08-18T01:56:39.091Z,25.43
2022-08-18T01:59:07.803Z,24.43
2022-08-18T02:01:48.517Z,25.60
2022-08-18T02:04:35.575Z,26.73
2022-08-18T02:07:07.015Z,27.43
2022-08-18T02:09:34.516Z,28.30
2022-08-18T02:12:02.485Z,23.87
2022-08-18T02:14:31.464Z,25.20
2022-08-18T02:17:01.627Z,24.80
2022-08-18T02:19:40.295Z,26.53
2022-08-18T02:22:09.333Z,27.37
2022-08-18T02:24:36.740Z,26.00
2022-08-18T02:27:05.918Z,26.20
2022-08-18T02:29:33.169Z,28.07
2022-08-18T02:32:00.036Z,26.93
2022-08-18T02:34:28.548Z,26.07
2022-08-18T02:36:56.283Z,27.00
2022-08-18T02:39:23.109Z,27.80
2022-08-18T02:41:51.347Z,28.83
2022-08-18T02:44:18.240Z,28.97
2022-08-18T02:46:46.334Z,27.43
2022-08-18T02:49:13.211Z,28.10
2022-08-18T02:51:40.311Z,27.97
2022-08-18T02:54:11.492Z,29.93
2022-08-18T02:56:42.374Z,30.30
2022-08-18T02:59:16.326Z,30.87
2022-08-18T03:01:48.979Z,31.97
2022-08-18T03:04:22.037Z,31.93
2022-08-18T03:06:52.578Z,29.57
2022-08-18T03:09:19.871Z,30.40
2022-08-18T03:11:47.679Z,31.17
2022-08-18T03:14:16.757Z,30.30
2022-08-18T03:16:53.703Z,30.33
2022-08-18T03:19:28.420Z,30.97
2022-08-18T03:21:59.446Z,30.03
2022-08-18T03:24:31.484Z,27.53
2022-08-18T03:27:00.104Z,28.97
2022-08-18T03:29:31.992Z,33.80
2022-08-18T03:32:02.392Z,30.27
2022-08-18T03:34:29.943Z,33.00
2022-08-18T03:36:56.976Z,32.80
2022-08-18T03:39:25.172Z,32.33
2022-08-18T03:41:58.508Z,39.10
2022-08-18T03:44:28.764Z,39.33
2022-08-18T03:46:55.909Z,36.40
2022-08-18T03:49:24.343Z,39.23
2022-08-18T03:51:51.815Z,37.50
2022-08-18T03:54:19.100Z,37.07
2022-08-18T03:56:49.422Z,35.83
2022-08-18T03:59:22.328Z,36.13
2022-08-18T04:01:51.374Z,36.67
2022-08-18T04:04:21.486Z,36.37
2022-08-18T04:06:53.974Z,38.90
2022-08-18T04:09:22.359Z,44.07
2022-08-18T04:11:49.927Z,51.00
2022-08-18T04:14:21.996Z,44.50
2022-08-18T04:16:49.300Z,41.43
2022-08-18T04:19:26.564Z,41.90
2022-08-18T04:21:58.567Z,44.07
2022-08-18T04:24:31.236Z,45.47
2022-08-18T04:27:01.124Z,46.67
2022-08-18T04:29:28.681Z,46.57
2022-08-18T04:31:56.143Z,47.10
2022-08-18T04:34:23.454Z,47.53
2022-08-18T04:36:54.445Z,47.57
2022-08-18T04:39:23.192Z,47.87
2022-08-18T04:41:50.482Z,49.37
2022-08-18T04:44:18.300Z,51.80
2022-08-18T04:46:58.852Z,46.73
2022-08-18T04:49:26.426Z,50.77
2022-08-18T04:52:38.361Z,50.60
2022-08-18T04:55:01.965Z,49.07
2022-08-18T04:57:34.045Z,50.43
2022-08-18T05:00:02.832Z,52.13
2022-08-18T05:02:31.559Z,51.00
2022-08-18T05:04:59.442Z,54.63
2022-08-18T05:07:26.383Z,49.97
2022-08-18T05:09:55.635Z,48.83
2022-08-18T05:12:25.171Z,51.97
2022-08-18T05:14:53.998Z,51.47
2022-08-18T05:17:21.813Z,52.87
2022-08-18T05:19:51.694Z,55.97
2022-08-18T05:22:24.274Z,54.93
2022-08-18T05:24:58.391Z,53.50
2022-08-18T05:27:25.274Z,58.07
2022-08-18T05:29:53.269Z,57.37
2022-08-18T05:32:38.274Z,55.63
2022-08-18T05:35:12.285Z,60.13
2022-08-18T05:37:58.760Z,60.27
2022-08-18T05:40:26.057Z,59.67
2022-08-18T05:42:57.450Z,60.80
2022-08-18T05:45:24.894Z,59.43
2022-08-18T05:47:59.477Z,60.50
2022-08-18T05:50:27.890Z,63.43
2022-08-18T05:53:13.729Z,60.03
2022-08-18T05:56:10.301Z,64.30
2022-08-18T05:58:40.760Z,64.30
2022-08-18T06:01:19.708Z,66.60
2022-08-18T06:03:50.384Z,62.87
2022-08-18T06:06:21.649Z,65.77
2022-08-18T06:09:20.267Z,67.93
2022-08-18T06:11:49.448Z,67.83
2022-08-18T06:14:17.063Z,68.77
2022-08-18T06:17:10.444Z,74.57
2022-08-18T06:19:52.898Z,71.53
2022-08-18T06:22:52.414Z,71.70
2022-08-18T06:25:25.216Z,74.23
2022-08-18T06:27:55.721Z,68.90
2022-08-18T06:30:33.339Z,69.37
2022-08-18T06:33:25.680Z,77.37
2022-08-18T06:35:58.652Z,72.73
2022-08-18T06:38:45.582Z,76.77
2022-08-18T06:41:41.652Z,68.80
2022-08-18T06:44:51.726Z,66.27
2022-08-18T06:47:35.295Z,64.83
2022-08-18T06:50:13.704Z,64.10
2022-08-18T06:53:02.172Z,62.40
2022-08-18T06:55:37.070Z,62.20
2022-08-18T06:58:18.001Z,65.00
2022-08-18T07:00:54.917Z,63.07
2022-08-18T07:03:44.977Z,58.27
2022-08-18T07:06:24.258Z,60.47
2022-08-18T07:08:53.845Z,52.17
2022-08-18T07:11:28.719Z,50.90
2022-08-18T07:14:15.436Z,46.43
2022-08-18T07:16:58.393Z,40.87
2022-08-18T07:19:30.177Z,38.70
2022-08-18T07:22:18.124Z,35.83
2022-08-18T07:24:48.991Z,36.83
2022-08-18T07:27:22.794Z,36.03
2022-08-18T07:29:59.699Z,38.47
2022-08-18T07:32:34.549Z,40.60
2022-08-18T07:35:03.713Z,40.13
2022-08-18T07:37:44.122Z,35.83
2022-08-18T07:40:26.619Z,36.40
2022-08-18T07:43:02.556Z,36.73
2022-08-18T07:45:32.828Z,33.63
2022-08-18T07:48:37.201Z,33.53
2022-08-18T07:51:33.315Z,32.50
2022-08-18T07:54:48.242Z,37.23
2022-08-18T07:57:21.409Z,37.63
2022-08-18T07:59:56.276Z,34.23
2022-08-18T08:02:59.201Z,31.83
2022-08-18T08:05:45.139Z,34.00
2022-08-18T08:08:38.034Z,33.87
2022-08-18T08:11:27.479Z,32.43
2022-08-18T08:14:16.265Z,30.97
2022-08-18T08:16:47.147Z,31.83
2022-08-18T08:19:42.558Z,31.57
2022-08-18T08:22:29.336Z,34.60
2022-08-18T08:25:46.337Z,31.70
2022-08-18T08:28:42.630Z,29.13
2022-08-18T08:31:37.405Z,30.23
2022-08-18T08:34:21.703Z,31.83
2022-08-18T08:36:50.581Z,29.20
2022-08-18T08:39:36.751Z,28.67
2022-08-18T08:42:30.897Z,27.80
2022-08-18T08:45:25.866Z,27.00
2022-08-18T08:48:28.756Z,27.13
2022-08-18T08:51:01.761Z,27.30
2022-08-18T08:53:34.757Z,27.50
2022-08-18T08:56:07.725Z,24.63
2022-08-18T08:58:40.864Z,28.60
2022-08-18T09:01:17.379Z,26.17
2022-08-18T09:03:50.876Z,27.43
2022-08-18T09:06:41.756Z,26.93
2022-08-18T09:09:21.197Z,27.03
2022-08-18T09:12:13.549Z,23.93
2022-08-18T09:15:09.092Z,26.13
2022-08-18T09:17:50.771Z,30.97
2022-08-18T09:20:49.162Z,39.97
2022-08-18T09:23:29.291Z,24.07
2022-08-18T09:26:00.913Z,24.17
2022-08-18T09:28:27.853Z,21.87
2022-08-18T09:31:08.960Z,20.37
2022-08-18T09:33:48.568Z,23.03
2022-08-18T09:36:48.272Z,21.77
2022-08-18T09:39:54.908Z,22.33
2022-08-18T09:45:33.525Z,22.03
2022-08-18T09:48:28.416Z,18.77
2022-08-18T09:50:37.043Z,20.97
2022-08-18T09:51:20.303Z,18.70
2022-08-18T09:53:47.416Z,24.47
2022-08-18T10:01:56.092Z,21.33
2022-08-18T10:04:49.431Z,20.27
2022-08-18T10:07:38.921Z,22.37
2022-08-18T10:11:00.502Z,21.77
2022-08-18T10:13:48.317Z,23.17
2022-08-18T10:16:25.935Z,22.43
2022-08-18T10:19:16.882Z,18.87
2022-08-18T10:22:00.295Z,23.17
2022-08-18T10:24:51.713Z,22.10
2022-08-18T10:27:44.706Z,18.90
2022-08-18T10:30:34.638Z,34.60
2022-08-18T10:33:17.629Z,24.43
2022-08-18T10:35:58.533Z,23.47
2022-08-18T10:41:31.029Z,18.57
2022-08-18T10:43:59.487Z,17.57
2022-08-18T10:46:34.343Z,21.20
2022-08-18T10:49:13.064Z,22.50
2022-08-18T10:51:59.247Z,18.27
2022-08-18T10:58:14.417Z,21.37
2022-08-18T11:01:06.531Z,20.10
2022-08-18T11:04:27.455Z,19.10
2022-08-18T11:07:07.768Z,20.73
2022-08-18T11:09:36.930Z,18.67
2022-08-18T11:12:11.811Z,18.80
2022-08-18T11:14:51.874Z,19.17
2022-08-18T11:17:32.023Z,19.10
2022-08-18T11:20:01.765Z,18.60
2022-08-18T11:22:34.460Z,16.27
2022-08-18T11:25:17.535Z,16.10
2022-08-18T11:27:47.267Z,16.40
2022-08-18T11:30:17.248Z,16.33
2022-08-18T11:32:52.193Z,15.80
2022-08-18T11:35:25.676Z,16.80
2022-08-18T11:37:58.024Z,16.87
2022-08-18T11:41:09.126Z,17.93
2022-08-18T11:43:21.605Z,18.87
2022-08-18T11:45:58.226Z,19.30
2022-08-18T11:48:39.015Z,17.60
2022-08-18T11:51:25.594Z,21.57
2022-08-18T11:54:18.618Z,18.80
2022-08-18T11:56:48.054Z,18.47
2022-08-18T11:59:53.896Z,14.17
2022-08-18T12:02:18.698Z,16.03
2022-08-18T12:04:51.050Z,15.57
2022-08-18T12:07:30.181Z,19.27
2022-08-18T12:10:26.519Z,16.35
2022-08-18T12:12:59.994Z,15.57
2022-08-18T12:15:47.046Z,15.33
2022-08-18T12:18:28.295Z,16.30
2022-08-18T12:20:58.471Z,16.67
2022-08-18T12:23:26.196Z,17.67
2022-08-18T12:25:53.300Z,16.07
2022-08-18T12:28:22.490Z,16.77
2022-08-18T12:30:56.017Z,16.93
2022-08-18T12:33:34.449Z,16.53
2022-08-18T12:36:15.809Z,16.70
2022-08-18T12:38:44.530Z,19.40
2022-08-18T12:41:24.905Z,20.80
2022-08-18T12:43:58.543Z,18.87
2022-08-18T12:46:31.800Z,15.43
2022-08-18T12:48:59.458Z,15.40
2022-08-18T12:51:30.790Z,17.80
2022-08-18T12:54:00.281Z,18.70
2022-08-18T12:56:30.956Z,17.53
2022-08-18T12:59:04.186Z,16.83
2022-08-18T13:01:34.008Z,17.50
2022-08-18T13:04:13.090Z,16.37
2022-08-18T13:06:59.222Z,16.00
2022-08-18T13:09:35.183Z,15.33
2022-08-18T13:12:20.816Z,16.97
2022-08-18T13:14:48.678Z,16.23
2022-08-18T13:17:32.098Z,16.97
2022-08-18T13:20:13.524Z,16.53
2022-08-18T13:22:41.626Z,14.83
2022-08-18T13:25:13.187Z,11.10
2022-08-18T13:28:00.774Z,13.00
2022-08-18T13:30:32.123Z,10.43
2022-08-18T13:33:05.770Z,10.03
2022-08-18T13:35:54.174Z,10.97
2022-08-18T13:38:27.123Z,8.83
2022-08-18T13:40:59.779Z,9.77
2022-08-18T13:43:32.037Z,9.57
2022-08-18T13:45:59.979Z,8.37
2022-08-18T13:48:28.526Z,9.83
2022-08-18T13:51:00.963Z,11.17
2022-08-18T13:53:29.892Z,10.67
2022-08-18T13:55:59.614Z,8.97
2022-08-18T13:58:28.259Z,10.83
2022-08-18T14:01:39.484Z,8.13
2022-08-18T14:03:53.374Z,7.70
2022-08-18T14:06:22.619Z,10.17
2022-08-18T14:08:52.579Z,8.60
2022-08-18T14:11:27.775Z,10.00
2022-08-18T14:14:02.085Z,8.83
2022-08-18T14:16:30.832Z,10.30
2022-08-18T14:19:17.852Z,9.57
2022-08-18T14:22:11.524Z,9.57
2022-08-18T14:24:59.259Z,9.83
2022-08-18T14:27:35.537Z,9.63
2022-08-18T14:30:06.965Z,9.80
2022-08-18T14:32:36.359Z,7.97
2022-08-18T14:35:31.721Z,10.77
2022-08-18T14:37:53.693Z,8.20
2022-08-18T14:40:23.767Z,7.40
2022-08-18T14:42:54.323Z,8.60
2022-08-18T14:45:31.407Z,8.10
2022-08-18T14:48:06.451Z,7.57
2022-08-18T14:50:34.796Z,7.27
2022-08-18T14:53:02.651Z,8.30
2022-08-18T14:55:30.546Z,8.87
2022-08-18T14:57:59.358Z,7.03
2022-08-18T15:00:27.740Z,7.73
2022-08-18T15:02:55.301Z,6.87
2022-08-18T15:05:24.393Z,6.90
2022-08-18T15:07:52.769Z,7.53
2022-08-18T15:10:23.476Z,7.63
2022-08-18T15:13:04.557Z,6.77
2022-08-18T15:15:50.544Z,6.60
2022-08-18T15:18:22.690Z,6.87
2022-08-18T15:21:19.643Z,7.07
2022-08-18T15:24:20.084Z,11.27
2022-08-18T15:26:51.840Z,9.37
2022-08-18T15:29:28.004Z,8.47
2022-08-18T15:32:05.334Z,7.93
2022-08-18T15:34:45.954Z,10.17
2022-08-18T15:37:14.113Z,7.73
2022-08-18T15:39:41.660Z,11.60
2022-08-18T15:42:10.792Z,8.27
2022-08-18T15:44:38.247Z,7.90
2022-08-18T15:47:09.351Z,9.67
2022-08-18T15:49:36.655Z,8.83
2022-08-18T15:52:04.187Z,9.10
2022-08-18T15:54:31.323Z,10.37
2022-08-18T15:56:58.954Z,27.30
2022-08-18T15:59:39.985Z,22.70
2022-08-18T16:02:11.456Z,32.43
2022-08-18T16:04:41.374Z,19.17
2022-08-18T16:07:12.888Z,10.87
2022-08-18T16:09:39.897Z,10.00
2022-08-18T16:12:09.317Z,11.20
2022-08-18T16:14:40.689Z,11.07
2022-08-18T16:17:09.422Z,12.83
2022-08-18T16:19:45.409Z,11.83
2022-08-18T16:22:13.455Z,11.80
2022-08-18T16:24:40.814Z,12.47
2022-08-18T16:27:08.829Z,10.80
2022-08-18T16:29:36.584Z,12.30
2022-08-18T16:32:04.394Z,14.00
2022-08-18T16:34:43.442Z,14.13
2022-08-18T16:37:11.169Z,12.40
2022-08-18T16:39:39.510Z,11.43
2022-08-18T16:42:07.890Z,12.60
2022-08-18T16:44:36.545Z,11.70
2022-08-18T16:47:07.741Z,13.10
2022-08-18T16:49:35.975Z,11.50
2022-08-18T16:52:03.498Z,11.47
2022-08-18T16:54:30.928Z,13.17
2022-08-18T16:56:58.335Z,14.00
2022-08-18T16:59:44.549Z,12.37
2022-08-18T17:02:33.109Z,11.97
2022-08-18T17:05:02.743Z,10.63
2022-08-18T17:07:31.635Z,12.67
2022-08-18T17:10:00.304Z,11.53
2022-08-18T17:12:30.040Z,11.03
2022-08-18T17:15:03.799Z,10.37
2022-08-18T17:17:31.887Z,11.27
2022-08-18T17:19:59.437Z,13.80
2022-08-18T17:22:27.221Z,10.77
2022-08-18T17:25:00.534Z,9.10
2022-08-18T17:27:37.319Z,10.80
2022-08-18T17:30:22.820Z,10.93
2022-08-18T17:33:32.982Z,10.83
2022-08-18T17:36:05.577Z,9.87
2022-08-18T17:38:36.588Z,8.63
2022-08-18T17:41:07.146Z,10.53
2022-08-18T17:46:28.306Z,7.80
2022-08-18T17:49:25.393Z,13.60
2022-08-18T17:51:55.425Z,9.70
2022-08-18T17:54:37.018Z,15.37
2022-08-18T17:57:11.247Z,9.97
2022-08-18T17:59:52.016Z,8.83
2022-08-18T18:02:29.626Z,9.93
2022-08-18T18:08:57.128Z,16.03
2022-08-18T18:11:31.511Z,9.00
2022-08-18T18:14:24.470Z,11.00
2022-08-18T18:17:02.369Z,7.87
2022-08-18T18:19:33.102Z,14.90
2022-08-18T18:22:11.353Z,9.90
2022-08-18T18:24:39.989Z,7.97
2022-08-18T18:27:28.894Z,7.70
2022-08-18T18:30:06.168Z,8.63
2022-08-18T18:32:40.256Z,7.80
2022-08-18T18:35:14.142Z,10.20
2022-08-18T18:41:02.369Z,7.30
2022-08-18T18:44:04.981Z,7.97
2022-08-18T18:46:34.539Z,7.20
2022-08-18T18:49:10.676Z,6.90
2022-08-18T18:52:02.195Z,8.50
2022-08-18T18:54:36.394Z,7.90
2022-08-18T18:57:10.914Z,6.50
2022-08-18T19:00:00.752Z,7.70
2022-08-18T19:02:48.149Z,7.50
2022-08-18T19:05:35.901Z,9.23
2022-08-18T19:08:18.044Z,8.47
2022-08-18T19:11:00.989Z,7.77
2022-08-18T19:13:36.043Z,8.43
2022-08-18T19:16:34.054Z,8.73
2022-08-18T19:19:36.890Z,10.57
2022-08-18T19:25:24.845Z,7.37
2022-08-18T19:28:09.800Z,9.07
2022-08-18T19:30:40.634Z,13.13
2022-08-18T19:33:10.277Z,11.20
2022-08-18T19:35:58.631Z,9.27
2022-08-18T19:39:02.697Z,11.23
2022-08-18T19:41:45.831Z,10.20
2022-08-18T19:44:29.133Z,7.77
2022-08-18T19:47:15.996Z,13.83
2022-08-18T19:50:11.904Z,8.47
2022-08-18T19:53:04.847Z,10.47
2022-08-18T19:56:10.297Z,7.37
2022-08-18T19:59:15.773Z,7.10
2022-08-18T20:02:34.103Z,8.33
2022-08-18T20:05:07.181Z,8.07
2022-08-18T20:07:56.599Z,7.67
2022-08-18T20:10:38.855Z,7.37
2022-08-18T20:13:24.208Z,8.30
2022-08-18T20:15:59.699Z,8.70
2022-08-18T20:18:35.312Z,6.70
2022-08-18T20:21:15.811Z,7.37
2022-08-18T20:23:58.189Z,8.17
2022-08-18T20:26:41.146Z,7.90
2022-08-18T20:29:16.047Z,7.43
2022-08-18T20:31:50.046Z,7.70
2022-08-18T20:34:25.947Z,8.00
2022-08-18T20:36:53.643Z,11.23
2022-08-18T20:39:30.134Z,8.17
2022-08-18T20:42:00.083Z,9.90
2022-08-18T20:44:49.665Z,9.37
2022-08-18T20:47:32.360Z,9.43
2022-08-18T20:50:23.378Z,10.37
2022-08-18T20:53:15.390Z,16.33
2022-08-18T20:56:31.277Z,16.20
2022-08-18T20:59:08.636Z,12.23
2022-08-18T21:01:38.702Z,15.80
2022-08-18T21:04:06.999Z,10.23
2022-08-18T21:06:44.717Z,11.03
2022-08-18T21:09:17.847Z,11.07
2022-08-18T21:11:46.272Z,12.63
2022-08-18T21:14:24.159Z,9.17
2022-08-18T21:16:55.773Z,11.40
2022-08-18T21:19:29.004Z,6.83
2022-08-18T21:22:23.934Z,10.63
2022-08-18T21:24:54.131Z,10.10
2022-08-18T21:27:29.360Z,9.53
2022-08-18T21:30:07.425Z,11.20
2022-08-18T21:32:37.202Z,12.73
2022-08-18T21:35:42.541Z,10.13
2022-08-18T21:38:12.599Z,9.27
2022-08-18T21:40:46.811Z,11.50
2022-08-18T21:43:58.357Z,7.40
2022-08-18T21:46:29.084Z,11.13
2022-08-18T21:49:03.302Z,9.27
2022-08-18T21:51:42.395Z,10.37
2022-08-18T21:54:12.760Z,9.33
2022-08-18T21:56:40.325Z,9.93
2022-08-18T21:59:23.457Z,7.67
2022-08-18T22:01:54.355Z,10.20
2022-08-18T22:04:37.153Z,7.90
2022-08-18T22:07:34.791Z,8.10
2022-08-18T22:10:26.183Z,11.13
2022-08-18T22:13:17.013Z,8.80
2022-08-18T22:16:12.915Z,6.77
2022-08-18T22:18:40.121Z,11.53
2022-08-18T22:21:37.832Z,7.33
2022-08-18T22:24:20.033Z,8.87
2022-08-18T22:27:12.448Z,8.77
2022-08-18T22:29:50.837Z,7.57
2022-08-18T22:32:21.561Z,7.80
2022-08-18T22:34:53.393Z,7.80
2022-08-18T22:37:26.090Z,7.43
2022-08-18T22:40:06.169Z,8.17
2022-08-18T22:42:33.789Z,7.10
2022-08-18T22:45:04.602Z,7.73
2022-08-18T22:47:43.157Z,6.20
2022-08-18T22:50:13.245Z,6.97
2022-08-18T22:52:43.138Z,6.77
2022-08-18T22:55:13.159Z,9.07
2022-08-18T22:57:42.960Z,7.47
2022-08-18T23:00:17.315Z,7.63
2022-08-18T23:02:45.184Z,8.07
2022-08-18T23:05:12.316Z,10.03
2022-08-18T23:07:39.362Z,8.33
2022-08-18T23:10:13.438Z,7.70
2022-08-18T23:12:43.648Z,9.07
2022-08-18T23:15:13.067Z,7.17
2022-08-18T23:17:42.310Z,7.40
2022-08-18T23:20:18.014Z,9.43
2022-08-18T23:22:47.781Z,7.87
2022-08-18T23:25:16.675Z,7.00
2022-08-18T23:27:43.769Z,8.67
2022-08-18T23:30:11.689Z,7.50
2022-08-18T23:32:38.689Z,10.37
2022-08-18T23:35:05.786Z,7.67
2022-08-18T23:37:32.894Z,8.37
2022-08-18T23:40:00.389Z,8.03
2022-08-18T23:42:27.471Z,7.30
2022-08-18T23:44:58.923Z,8.80
2022-08-18T23:47:26.302Z,8.27
2022-08-18T23:49:53.803Z,6.83
2022-08-18T23:52:21.531Z,7.40
2022-08-18T23:54:48.569Z,8.00
2022-08-18T23:57:16.484Z,7.03
2022-08-18T23:59:43.378Z,7.07
